sensor_id;sensor_type;location;lat;lon;timestamp;pressure;altitude;pressure_sealevel;temperature;humidity
77003;BME280;65939;50.060;14.288;2023-04-03T00:01:21;97945.69;;;2.72;83.99
77003;BME280;65939;50.060;14.288;2023-04-03T00:03:22;97947.50;;;2.70;84.09
77003;BME280;65939;50.060;14.288;2023-04-03T00:05:23;97950.06;;;2.70;84.00
77003;BME280;65939;50.060;14.288;2023-04-03T00:07:24;97944.75;;;2.73;83.84
77003;BME280;65939;50.060;14.288;2023-04-03T00:09:25;97949.91;;;2.73;84.36
77003;BME280;65939;50.060;14.288;2023-04-03T00:11:25;97943.91;;;2.73;83.85
77003;BME280;65939;50.060;14.288;2023-04-03T00:13:26;97944.94;;;2.70;84.25
77003;BME280;65939;50.060;14.288;2023-04-03T00:15:28;97944.09;;;2.70;83.88
77003;BME280;65939;50.060;14.288;2023-04-03T00:17:28;97953.41;;;2.72;84.11
77003;BME280;65939;50.060;14.288;2023-04-03T00:19:29;97954.34;;;2.71;84.07
77003;BME280;65939;50.060;14.288;2023-04-03T00:21:29;97940.63;;;2.71;84.21
77003;BME280;65939;50.060;14.288;2023-04-03T00:23:31;97945.03;;;2.69;83.66
77003;BME280;65939;50.060;14.288;2023-04-03T00:25:32;97948.34;;;2.71;83.48
77003;BME280;65939;50.060;14.288;2023-04-03T00:27:36;97949.25;;;2.70;83.93
77003;BME280;65939;50.060;14.288;2023-04-03T00:29:37;97959.66;;;2.68;83.85
77003;BME280;65939;50.060;14.288;2023-04-03T00:31:37;97949.19;;;2.71;83.61
77003;BME280;65939;50.060;14.288;2023-04-03T00:33:38;97958.56;;;2.72;83.87
77003;BME280;65939;50.060;14.288;2023-04-03T00:35:39;97951.59;;;2.74;83.60
77003;BME280;65939;50.060;14.288;2023-04-03T00:37:40;97956.75;;;2.74;83.22
77003;BME280;65939;50.060;14.288;2023-04-03T00:39:40;97960.22;;;2.73;83.00
77003;BME280;65939;50.060;14.288;2023-04-03T00:41:41;97957.56;;;2.75;83.21
77003;BME280;65939;50.060;14.288;2023-04-03T00:43:42;97954.88;;;2.76;83.51
77003;BME280;65939;50.060;14.288;2023-04-03T00:45:46;97961.69;;;2.77;82.82
77003;BME280;65939;50.060;14.288;2023-04-03T00:47:47;97960.22;;;2.73;82.17
77003;BME280;65939;50.060;14.288;2023-04-03T00:49:49;97958.47;;;2.74;81.77
77003;BME280;65939;50.060;14.288;2023-04-03T00:51:51;97968.72;;;2.75;81.94
77003;BME280;65939;50.060;14.288;2023-04-03T00:53:58;97966.03;;;2.77;80.71
77003;BME280;65939;50.060;14.288;2023-04-03T00:56:05;97965.13;;;2.78;80.68
77003;BME280;65939;50.060;14.288;2023-04-03T00:58:08;97958.22;;;2.78;80.37
77003;BME280;65939;50.060;14.288;2023-04-03T01:00:13;97960.69;;;2.80;80.29
77003;BME280;65939;50.060;14.288;2023-04-03T01:02:16;97960.97;;;2.75;79.88
77003;BME280;65939;50.060;14.288;2023-04-03T01:04:28;97966.47;;;2.69;78.96
77003;BME280;65939;50.060;14.288;2023-04-03T01:06:34;97967.59;;;2.65;79.28
77003;BME280;65939;50.060;14.288;2023-04-03T01:08:35;97964.47;;;2.60;78.77
77003;BME280;65939;50.060;14.288;2023-04-03T01:10:36;97963.81;;;2.56;78.31
77003;BME280;65939;50.060;14.288;2023-04-03T01:12:38;97969.13;;;2.53;77.68
77003;BME280;65939;50.060;14.288;2023-04-03T01:14:40;97982.25;;;2.49;77.30
77003;BME280;65939;50.060;14.288;2023-04-03T01:16:40;97960.09;;;2.46;77.23
77003;BME280;65939;50.060;14.288;2023-04-03T01:18:42;97961.19;;;2.42;76.52
77003;BME280;65939;50.060;14.288;2023-04-03T01:23:30;97974.31;;;2.37;76.05
77003;BME280;65939;50.060;14.288;2023-04-03T01:25:38;97974.69;;;2.31;76.30
77003;BME280;65939;50.060;14.288;2023-04-03T01:27:39;97984.34;;;2.28;76.08
77003;BME280;65939;50.060;14.288;2023-04-03T01:29:42;97991.47;;;2.23;74.95
77003;BME280;65939;50.060;14.288;2023-04-03T01:31:56;97988.50;;;2.14;73.97
77003;BME280;65939;50.060;14.288;2023-04-03T01:33:57;97985.34;;;2.09;73.24
77003;BME280;65939;50.060;14.288;2023-04-03T01:35:57;97986.44;;;2.05;73.73
77003;BME280;65939;50.060;14.288;2023-04-03T01:37:58;97994.44;;;2.01;73.30
77003;BME280;65939;50.060;14.288;2023-04-03T01:39:59;97988.63;;;1.97;73.46
77003;BME280;65939;50.060;14.288;2023-04-03T01:41:59;98000.75;;;1.95;73.04
77003;BME280;65939;50.060;14.288;2023-04-03T01:44:00;98007.63;;;1.95;73.38
77003;BME280;65939;50.060;14.288;2023-04-03T01:46:01;98017.44;;;1.88;73.56
77003;BME280;65939;50.060;14.288;2023-04-03T01:48:02;98020.38;;;1.82;73.24
77003;BME280;65939;50.060;14.288;2023-04-03T01:50:03;98017.94;;;1.79;73.66
77003;BME280;65939;50.060;14.288;2023-04-03T01:52:04;98012.22;;;1.74;73.53
77003;BME280;65939;50.060;14.288;2023-04-03T01:54:04;98023.59;;;1.70;73.73
77003;BME280;65939;50.060;14.288;2023-04-03T01:56:06;98022.19;;;1.64;74.35
77003;BME280;65939;50.060;14.288;2023-04-03T01:58:07;98013.13;;;1.57;73.01
77003;BME280;65939;50.060;14.288;2023-04-03T02:00:08;98021.47;;;1.44;73.71
77003;BME280;65939;50.060;14.288;2023-04-03T02:02:09;98013.41;;;1.35;73.88
77003;BME280;65939;50.060;14.288;2023-04-03T02:04:12;98026.09;;;1.22;73.24
77003;BME280;65939;50.060;14.288;2023-04-03T02:06:13;98014.38;;;1.16;72.81
77003;BME280;65939;50.060;14.288;2023-04-03T02:08:14;98023.16;;;1.12;73.52
77003;BME280;65939;50.060;14.288;2023-04-03T02:10:15;98022.63;;;1.06;72.97
77003;BME280;65939;50.060;14.288;2023-04-03T02:12:15;98022.78;;;1.03;72.47
77003;BME280;65939;50.060;14.288;2023-04-03T02:14:16;98031.34;;;1.03;72.98
77003;BME280;65939;50.060;14.288;2023-04-03T02:16:17;98025.31;;;1.04;72.13
77003;BME280;65939;50.060;14.288;2023-04-03T02:18:17;98017.66;;;1.03;73.21
77003;BME280;65939;50.060;14.288;2023-04-03T02:20:18;98024.53;;;1.02;72.59
77003;BME280;65939;50.060;14.288;2023-04-03T02:22:19;98023.94;;;0.97;72.26
77003;BME280;65939;50.060;14.288;2023-04-03T02:24:20;98023.28;;;0.93;72.20
77003;BME280;65939;50.060;14.288;2023-04-03T02:26:21;98028.63;;;0.89;72.38
77003;BME280;65939;50.060;14.288;2023-04-03T02:28:22;98027.22;;;0.83;72.24
77003;BME280;65939;50.060;14.288;2023-04-03T02:30:22;98037.50;;;0.83;72.14
77003;BME280;65939;50.060;14.288;2023-04-03T02:32:23;98029.34;;;0.75;72.13
77003;BME280;65939;50.060;14.288;2023-04-03T02:34:25;98029.69;;;0.67;72.13
77003;BME280;65939;50.060;14.288;2023-04-03T02:36:25;98035.00;;;0.64;71.61
77003;BME280;65939;50.060;14.288;2023-04-03T02:38:26;98029.25;;;0.59;71.68
77003;BME280;65939;50.060;14.288;2023-04-03T02:40:27;98043.31;;;0.52;71.62
77003;BME280;65939;50.060;14.288;2023-04-03T02:42:28;98038.63;;;0.43;72.36
77003;BME280;65939;50.060;14.288;2023-04-03T02:44:28;98038.84;;;0.38;72.47
77003;BME280;65939;50.060;14.288;2023-04-03T02:46:29;98046.84;;;0.32;72.14
77003;BME280;65939;50.060;14.288;2023-04-03T02:48:30;98046.09;;;0.30;72.30
77003;BME280;65939;50.060;14.288;2023-04-03T02:50:30;98047.88;;;0.28;72.07
77003;BME280;65939;50.060;14.288;2023-04-03T02:52:31;98042.22;;;0.21;72.12
77003;BME280;65939;50.060;14.288;2023-04-03T02:54:32;98043.34;;;0.16;72.59
77003;BME280;65939;50.060;14.288;2023-04-03T02:56:32;98049.44;;;0.13;72.44
77003;BME280;65939;50.060;14.288;2023-04-03T02:58:33;98054.81;;;0.09;72.07
77003;BME280;65939;50.060;14.288;2023-04-03T03:00:34;98053.19;;;0.06;72.26
77003;BME280;65939;50.060;14.288;2023-04-03T03:02:35;98051.47;;;0.07;72.52
77003;BME280;65939;50.060;14.288;2023-04-03T03:04:36;98055.03;;;0.04;73.10
77003;BME280;65939;50.060;14.288;2023-04-03T03:06:36;98052.59;;;0.01;72.46
77003;BME280;65939;50.060;14.288;2023-04-03T03:08:38;98058.69;;;-0.02;72.79
77003;BME280;65939;50.060;14.288;2023-04-03T03:10:38;98058.84;;;-0.05;72.69
77003;BME280;65939;50.060;14.288;2023-04-03T03:12:39;98053.97;;;-0.11;73.00
77003;BME280;65939;50.060;14.288;2023-04-03T03:14:40;98068.63;;;-0.13;72.88
77003;BME280;65939;50.060;14.288;2023-04-03T03:16:43;98056.06;;;-0.19;73.64
77003;BME280;65939;50.060;14.288;2023-04-03T03:18:43;98052.91;;;-0.24;73.70
77003;BME280;65939;50.060;14.288;2023-04-03T03:20:44;98061.69;;;-0.30;73.65
77003;BME280;65939;50.060;14.288;2023-04-03T03:22:45;98064.50;;;-0.36;74.25
77003;BME280;65939;50.060;14.288;2023-04-03T03:24:46;98063.06;;;-0.41;74.04
77003;BME280;65939;50.060;14.288;2023-04-03T03:26:46;98066.59;;;-0.44;73.92
77003;BME280;65939;50.060;14.288;2023-04-03T03:28:47;98068.56;;;-0.49;74.04
77003;BME280;65939;50.060;14.288;2023-04-03T03:30:48;98072.16;;;-0.53;74.30
77003;BME280;65939;50.060;14.288;2023-04-03T03:32:48;98067.28;;;-0.59;74.07
77003;BME280;65939;50.060;14.288;2023-04-03T03:34:49;98060.56;;;-0.62;74.45
77003;BME280;65939;50.060;14.288;2023-04-03T03:36:50;98060.81;;;-0.68;74.67
77003;BME280;65939;50.060;14.288;2023-04-03T03:38:51;98069.66;;;-0.75;74.53
77003;BME280;65939;50.060;14.288;2023-04-03T03:40:51;98065.72;;;-0.82;74.77
77003;BME280;65939;50.060;14.288;2023-04-03T03:42:52;98065.88;;;-0.85;75.23
77003;BME280;65939;50.060;14.288;2023-04-03T03:44:53;98077.91;;;-0.87;75.46
77003;BME280;65939;50.060;14.288;2023-04-03T03:46:54;98072.00;;;-0.89;75.23
77003;BME280;65939;50.060;14.288;2023-04-03T03:48:55;98073.03;;;-0.93;75.28
77003;BME280;65939;50.060;14.288;2023-04-03T03:50:56;98082.53;;;-0.95;75.66
77003;BME280;65939;50.060;14.288;2023-04-03T03:52:57;98082.56;;;-0.97;75.58
77003;BME280;65939;50.060;14.288;2023-04-03T03:54:57;98079.19;;;-0.98;75.76
77003;BME280;65939;50.060;14.288;2023-04-03T03:56:58;98075.09;;;-1.02;75.94
77003;BME280;65939;50.060;14.288;2023-04-03T03:58:58;98084.56;;;-1.04;75.77
77003;BME280;65939;50.060;14.288;2023-04-03T04:01:04;98083.94;;;-1.09;75.91
77003;BME280;65939;50.060;14.288;2023-04-03T04:03:05;98086.69;;;-1.13;76.26
77003;BME280;65939;50.060;14.288;2023-04-03T04:05:06;98088.47;;;-1.15;76.66
77003;BME280;65939;50.060;14.288;2023-04-03T04:07:07;98094.53;;;-1.18;76.71
77003;BME280;65939;50.060;14.288;2023-04-03T04:09:09;98088.78;;;-1.23;76.69
77003;BME280;65939;50.060;14.288;2023-04-03T04:11:09;98081.22;;;-1.26;76.95
77003;BME280;65939;50.060;14.288;2023-04-03T04:13:10;98089.94;;;-1.30;76.88
77003;BME280;65939;50.060;14.288;2023-04-03T04:15:11;98093.25;;;-1.28;76.91
77003;BME280;65939;50.060;14.288;2023-04-03T04:17:12;98094.97;;;-1.29;76.93
77003;BME280;65939;50.060;14.288;2023-04-03T04:19:14;98090.69;;;-1.28;77.33
77003;BME280;65939;50.060;14.288;2023-04-03T04:21:15;98091.59;;;-1.29;77.27
77003;BME280;65939;50.060;14.288;2023-04-03T04:23:16;98097.63;;;-1.30;77.14
77003;BME280;65939;50.060;14.288;2023-04-03T04:25:17;98098.53;;;-1.31;77.28
77003;BME280;65939;50.060;14.288;2023-04-03T04:27:18;98096.78;;;-1.31;77.23
77003;BME280;65939;50.060;14.288;2023-04-03T04:29:19;98101.19;;;-1.34;77.42
77003;BME280;65939;50.060;14.288;2023-04-03T04:31:19;98104.78;;;-1.38;77.51
77003;BME280;65939;50.060;14.288;2023-04-03T04:33:20;98107.34;;;-1.38;77.39
77003;BME280;65939;50.060;14.288;2023-04-03T04:35:21;98114.25;;;-1.40;77.41
77003;BME280;65939;50.060;14.288;2023-04-03T04:37:21;98115.88;;;-1.38;77.43
77003;BME280;65939;50.060;14.288;2023-04-03T04:39:22;98109.91;;;-1.38;77.61
77003;BME280;65939;50.060;14.288;2023-04-03T04:41:22;98115.03;;;-1.38;77.37
77003;BME280;65939;50.060;14.288;2023-04-03T04:43:23;98111.75;;;-1.42;77.55
77003;BME280;65939;50.060;14.288;2023-04-03T04:45:24;98126.34;;;-1.44;77.76
77003;BME280;65939;50.060;14.288;2023-04-03T04:47:24;98122.94;;;-1.45;77.71
77003;BME280;65939;50.060;14.288;2023-04-03T04:49:25;98115.19;;;-1.43;77.78
77003;BME280;65939;50.060;14.288;2023-04-03T04:51:26;98122.94;;;-1.45;77.79
77003;BME280;65939;50.060;14.288;2023-04-03T04:53:27;98119.72;;;-1.50;77.76
77003;BME280;65939;50.060;14.288;2023-04-03T04:55:27;98126.53;;;-1.49;77.60
77003;BME280;65939;50.060;14.288;2023-04-03T04:57:28;98121.28;;;-1.46;77.79
77003;BME280;65939;50.060;14.288;2023-04-03T04:59:29;98128.97;;;-1.46;77.87
77003;BME280;65939;50.060;14.288;2023-04-03T05:01:30;98120.38;;;-1.45;77.72
77003;BME280;65939;50.060;14.288;2023-04-03T05:03:31;98126.41;;;-1.46;77.82
77003;BME280;65939;50.060;14.288;2023-04-03T05:05:32;98127.25;;;-1.45;78.03
77003;BME280;65939;50.060;14.288;2023-04-03T05:07:33;98123.84;;;-1.46;78.13
77003;BME280;65939;50.060;14.288;2023-04-03T05:09:34;98128.91;;;-1.44;77.90
77003;BME280;65939;50.060;14.288;2023-04-03T05:11:37;98128.81;;;-1.42;78.00
77003;BME280;65939;50.060;14.288;2023-04-03T05:13:38;98118.72;;;-1.46;78.40
77003;BME280;65939;50.060;14.288;2023-04-03T05:15:38;98120.50;;;-1.48;78.41
77003;BME280;65939;50.060;14.288;2023-04-03T05:17:39;98122.25;;;-1.48;78.30
77003;BME280;65939;50.060;14.288;2023-04-03T05:19:40;98117.94;;;-1.48;78.31
77003;BME280;65939;50.060;14.288;2023-04-03T05:21:41;98129.81;;;-1.45;78.44
77003;BME280;65939;50.060;14.288;2023-04-03T05:23:41;98129.81;;;-1.45;78.29
77003;BME280;65939;50.060;14.288;2023-04-03T05:25:42;98129.72;;;-1.43;78.50
77003;BME280;65939;50.060;14.288;2023-04-03T05:27:45;98130.50;;;-1.41;78.68
77003;BME280;65939;50.060;14.288;2023-04-03T05:29:46;98132.19;;;-1.40;78.62
77003;BME280;65939;50.060;14.288;2023-04-03T05:31:49;98136.34;;;-1.38;78.79
77003;BME280;65939;50.060;14.288;2023-04-03T05:33:50;98145.69;;;-1.37;78.49
77003;BME280;65939;50.060;14.288;2023-04-03T05:35:52;98149.03;;;-1.35;78.41
77003;BME280;65939;50.060;14.288;2023-04-03T05:37:53;98157.47;;;-1.33;78.98
77003;BME280;65939;50.060;14.288;2023-04-03T05:39:54;98139.44;;;-1.30;79.13
77003;BME280;65939;50.060;14.288;2023-04-03T05:41:54;98146.22;;;-1.29;78.99
77003;BME280;65939;50.060;14.288;2023-04-03T05:43:55;98159.03;;;-1.29;78.60
77003;BME280;65939;50.060;14.288;2023-04-03T05:45:56;98158.00;;;-1.25;78.46
77003;BME280;65939;50.060;14.288;2023-04-03T05:47:56;98158.66;;;-1.19;78.67
77003;BME280;65939;50.060;14.288;2023-04-03T05:49:57;98163.56;;;-1.13;79.04
77003;BME280;65939;50.060;14.288;2023-04-03T05:51:58;98157.31;;;-1.08;78.60
77003;BME280;65939;50.060;14.288;2023-04-03T05:54:06;98160.59;;;-1.04;78.61
77003;BME280;65939;50.060;14.288;2023-04-03T05:56:09;98162.13;;;-1.00;78.42
77003;BME280;65939;50.060;14.288;2023-04-03T05:58:10;98164.59;;;-0.97;78.43
77003;BME280;65939;50.060;14.288;2023-04-03T06:00:14;98160.28;;;-0.97;78.33
77003;BME280;65939;50.060;14.288;2023-04-03T06:02:18;98166.28;;;-0.96;78.25
77003;BME280;65939;50.060;14.288;2023-04-03T06:04:19;98165.41;;;-0.97;77.84
77003;BME280;65939;50.060;14.288;2023-04-03T06:06:21;98170.41;;;-0.93;78.26
77003;BME280;65939;50.060;14.288;2023-04-03T06:08:22;98157.56;;;-0.92;78.38
77003;BME280;65939;50.060;14.288;2023-04-03T06:10:24;98180.44;;;-0.87;78.48
77003;BME280;65939;50.060;14.288;2023-04-03T06:12:24;98165.69;;;-0.82;78.13
77003;BME280;65939;50.060;14.288;2023-04-03T06:14:25;98175.44;;;-0.70;78.45
77003;BME280;65939;50.060;14.288;2023-04-03T06:16:26;98172.34;;;-0.58;78.17
77003;BME280;65939;50.060;14.288;2023-04-03T06:18:27;98178.00;;;-0.50;78.02
77003;BME280;65939;50.060;14.288;2023-04-03T06:20:28;98175.28;;;-0.46;77.36
77003;BME280;65939;50.060;14.288;2023-04-03T06:22:29;98192.38;;;-0.45;77.48
77003;BME280;65939;50.060;14.288;2023-04-03T06:24:30;98187.09;;;-0.42;77.03
77003;BME280;65939;50.060;14.288;2023-04-03T06:26:31;98181.97;;;-0.42;77.30
77003;BME280;65939;50.060;14.288;2023-04-03T06:28:33;98186.44;;;-0.47;77.19
77003;BME280;65939;50.060;14.288;2023-04-03T06:30:34;98185.53;;;-0.46;77.10
77003;BME280;65939;50.060;14.288;2023-04-03T06:32:35;98186.44;;;-0.47;76.99
77003;BME280;65939;50.060;14.288;2023-04-03T06:34:36;98185.69;;;-0.50;77.27
77003;BME280;65939;50.060;14.288;2023-04-03T06:36:39;98190.69;;;-0.46;77.31
77003;BME280;65939;50.060;14.288;2023-04-03T06:38:41;98182.81;;;-0.42;77.08
77003;BME280;65939;50.060;14.288;2023-04-03T06:40:41;98195.31;;;-0.34;76.07
77003;BME280;65939;50.060;14.288;2023-04-03T06:42:42;98189.63;;;-0.22;76.14
77003;BME280;65939;50.060;14.288;2023-04-03T06:44:43;98199.16;;;-0.05;76.05
77003;BME280;65939;50.060;14.288;2023-04-03T06:46:44;98204.03;;;0.01;74.94
77003;BME280;65939;50.060;14.288;2023-04-03T06:48:47;98197.03;;;0.05;74.98
77003;BME280;65939;50.060;14.288;2023-04-03T06:50:48;98217.44;;;0.08;74.26
77003;BME280;65939;50.060;14.288;2023-04-03T06:52:49;98209.75;;;0.08;73.84
77003;BME280;65939;50.060;14.288;2023-04-03T06:54:49;98214.06;;;0.07;74.22
77003;BME280;65939;50.060;14.288;2023-04-03T06:56:52;98220.00;;;0.08;74.20
77003;BME280;65939;50.060;14.288;2023-04-03T06:58:54;98212.22;;;0.09;73.66
77003;BME280;65939;50.060;14.288;2023-04-03T07:00:55;98217.00;;;0.17;74.18
77003;BME280;65939;50.060;14.288;2023-04-03T07:02:56;98219.19;;;0.26;73.89
77003;BME280;65939;50.060;14.288;2023-04-03T07:04:57;98230.63;;;0.38;74.45
77003;BME280;65939;50.060;14.288;2023-04-03T07:06:58;98223.97;;;0.53;73.73
77003;BME280;65939;50.060;14.288;2023-04-03T07:09:00;98219.34;;;0.61;74.03
77003;BME280;65939;50.060;14.288;2023-04-03T07:11:01;98223.28;;;0.68;73.75
77003;BME280;65939;50.060;14.288;2023-04-03T07:13:01;98217.56;;;0.80;73.72
77003;BME280;65939;50.060;14.288;2023-04-03T07:15:03;98220.84;;;1.01;73.64
77003;BME280;65939;50.060;14.288;2023-04-03T07:17:04;98216.44;;;1.03;72.64
77003;BME280;65939;50.060;14.288;2023-04-03T07:19:05;98221.53;;;1.05;73.32
77003;BME280;65939;50.060;14.288;2023-04-03T07:21:05;98231.44;;;1.12;73.18
77003;BME280;65939;50.060;14.288;2023-04-03T07:23:06;98234.41;;;1.22;73.26
77003;BME280;65939;50.060;14.288;2023-04-03T07:25:07;98241.75;;;1.30;71.74
77003;BME280;65939;50.060;14.288;2023-04-03T07:27:08;98240.31;;;1.41;72.03
77003;BME280;65939;50.060;14.288;2023-04-03T07:29:08;98234.59;;;1.54;71.72
77003;BME280;65939;50.060;14.288;2023-04-03T07:31:12;98246.09;;;1.64;71.22
77003;BME280;65939;50.060;14.288;2023-04-03T07:33:18;98244.50;;;1.61;70.32
77003;BME280;65939;50.060;14.288;2023-04-03T07:35:20;98252.50;;;1.55;70.19
77003;BME280;65939;50.060;14.288;2023-04-03T07:37:20;98249.25;;;1.34;69.83
77003;BME280;65939;50.060;14.288;2023-04-03T07:39:21;98250.59;;;1.24;70.01
77003;BME280;65939;50.060;14.288;2023-04-03T07:41:21;98251.75;;;1.18;70.17
77003;BME280;65939;50.060;14.288;2023-04-03T07:43:23;98237.72;;;1.24;70.99
77003;BME280;65939;50.060;14.288;2023-04-03T07:45:26;98241.22;;;1.23;70.01
77003;BME280;65939;50.060;14.288;2023-04-03T07:47:27;98234.66;;;1.17;70.17
77003;BME280;65939;50.060;14.288;2023-04-03T07:49:28;98246.09;;;1.29;70.15
77003;BME280;65939;50.060;14.288;2023-04-03T07:51:28;98226.56;;;1.42;70.26
77003;BME280;65939;50.060;14.288;2023-04-03T07:53:31;98228.38;;;1.58;70.05
77003;BME280;65939;50.060;14.288;2023-04-03T07:55:32;98244.19;;;1.50;69.46
77003;BME280;65939;50.060;14.288;2023-04-03T07:57:32;98235.84;;;1.45;69.36
77003;BME280;65939;50.060;14.288;2023-04-03T07:59:33;98234.44;;;1.39;68.96
77003;BME280;65939;50.060;14.288;2023-04-03T08:01:34;98225.72;;;1.25;69.50
77003;BME280;65939;50.060;14.288;2023-04-03T08:03:35;98228.38;;;1.23;69.25
77003;BME280;65939;50.060;14.288;2023-04-03T08:05:40;98225.66;;;1.26;69.67
77003;BME280;65939;50.060;14.288;2023-04-03T08:07:41;98230.41;;;1.34;68.88
77003;BME280;65939;50.060;14.288;2023-04-03T08:09:42;98225.91;;;1.39;68.56
77003;BME280;65939;50.060;14.288;2023-04-03T08:11:43;98234.13;;;1.46;68.13
77003;BME280;65939;50.060;14.288;2023-04-03T08:13:44;98231.41;;;1.49;68.35
77003;BME280;65939;50.060;14.288;2023-04-03T08:15:45;98221.09;;;1.49;68.81
77003;BME280;65939;50.060;14.288;2023-04-03T08:17:46;98234.59;;;1.54;69.28
77003;BME280;65939;50.060;14.288;2023-04-03T08:19:47;98227.41;;;1.43;69.16
77003;BME280;65939;50.060;14.288;2023-04-03T08:21:48;98241.91;;;1.27;68.67
77003;BME280;65939;50.060;14.288;2023-04-03T08:23:49;98233.78;;;1.17;68.56
77003;BME280;65939;50.060;14.288;2023-04-03T08:25:53;98235.25;;;1.23;69.65
77003;BME280;65939;50.060;14.288;2023-04-03T08:27:53;98237.44;;;1.30;69.17
77003;BME280;65939;50.060;14.288;2023-04-03T08:29:55;98237.69;;;1.43;69.63
77003;BME280;65939;50.060;14.288;2023-04-03T08:31:57;98231.94;;;1.55;68.52
77003;BME280;65939;50.060;14.288;2023-04-03T08:33:57;98245.41;;;1.60;68.26
77003;BME280;65939;50.060;14.288;2023-04-03T08:35:58;98241.09;;;1.61;68.23
77003;BME280;65939;50.060;14.288;2023-04-03T08:37:58;98238.00;;;1.72;68.53
77003;BME280;65939;50.060;14.288;2023-04-03T08:39:59;98241.53;;;1.86;69.70
77003;BME280;65939;50.060;14.288;2023-04-03T08:42:10;98244.00;;;1.88;68.14
77003;BME280;65939;50.060;14.288;2023-04-03T08:46:42;98242.81;;;1.78;68.79
77003;BME280;65939;50.060;14.288;2023-04-03T08:48:49;98237.84;;;1.75;67.76
77003;BME280;65939;50.060;14.288;2023-04-03T08:50:56;98235.94;;;1.78;68.66
77003;BME280;65939;50.060;14.288;2023-04-03T08:52:59;98269.16;;;1.83;68.52
77003;BME280;65939;50.060;14.288;2023-04-03T08:55:05;98240.47;;;1.73;68.03
77003;BME280;65939;50.060;14.288;2023-04-03T08:57:11;98242.13;;;1.74;67.75
77003;BME280;65939;50.060;14.288;2023-04-03T08:59:21;98257.66;;;1.90;68.87
77003;BME280;65939;50.060;14.288;2023-04-03T09:01:37;98230.72;;;1.96;67.97
77003;BME280;65939;50.060;14.288;2023-04-03T09:03:40;98246.19;;;1.96;66.87
77003;BME280;65939;50.060;14.288;2023-04-03T09:05:57;98247.53;;;2.03;66.73
77003;BME280;65939;50.060;14.288;2023-04-03T09:08:07;98249.59;;;2.13;65.63
77003;BME280;65939;50.060;14.288;2023-04-03T09:10:17;98236.72;;;2.13;64.85
77003;BME280;65939;50.060;14.288;2023-04-03T09:12:23;98241.25;;;2.08;63.92
77003;BME280;65939;50.060;14.288;2023-04-03T09:14:38;98227.44;;;2.09;64.32
77003;BME280;65939;50.060;14.288;2023-04-03T09:16:57;98233.94;;;2.01;63.13
77003;BME280;65939;50.060;14.288;2023-04-03T09:21:31;98249.84;;;1.91;62.42
77003;BME280;65939;50.060;14.288;2023-04-03T09:23:50;98257.56;;;1.91;64.11
77003;BME280;65939;50.060;14.288;2023-04-03T09:26:00;98246.81;;;2.01;64.09
77003;BME280;65939;50.060;14.288;2023-04-03T09:28:03;98253.03;;;1.97;63.12
77003;BME280;65939;50.060;14.288;2023-04-03T09:30:18;98248.22;;;2.06;63.50
77003;BME280;65939;50.060;14.288;2023-04-03T09:32:31;98253.41;;;2.22;63.46
77003;BME280;65939;50.060;14.288;2023-04-03T09:34:36;98261.72;;;2.27;62.66
77003;BME280;65939;50.060;14.288;2023-04-03T09:38:43;98257.75;;;2.22;62.62
77003;BME280;65939;50.060;14.288;2023-04-03T09:41:17;98265.75;;;2.33;62.31
77003;BME280;65939;50.060;14.288;2023-04-03T09:43:25;98282.19;;;2.30;62.30
77003;BME280;65939;50.060;14.288;2023-04-03T09:45:34;98278.16;;;2.42;62.66
77003;BME280;65939;50.060;14.288;2023-04-03T09:47:36;98276.09;;;2.64;62.24
77003;BME280;65939;50.060;14.288;2023-04-03T09:49:38;98274.53;;;2.78;61.91
77003;BME280;65939;50.060;14.288;2023-04-03T09:51:39;98285.09;;;2.89;62.11
77003;BME280;65939;50.060;14.288;2023-04-03T09:53:43;98267.94;;;2.88;60.59
77003;BME280;65939;50.060;14.288;2023-04-03T09:55:44;98256.38;;;2.79;60.30
77003;BME280;65939;50.060;14.288;2023-04-03T09:57:46;98275.44;;;2.61;60.66
77003;BME280;65939;50.060;14.288;2023-04-03T10:00:00;98275.84;;;2.53;60.68
77003;BME280;65939;50.060;14.288;2023-04-03T10:02:22;98271.09;;;2.77;60.23
77003;BME280;65939;50.060;14.288;2023-04-03T10:04:24;98268.44;;;2.95;59.89
77003;BME280;65939;50.060;14.288;2023-04-03T10:06:24;98287.72;;;3.19;60.20
77003;BME280;65939;50.060;14.288;2023-04-03T10:10:28;98264.06;;;3.27;60.71
77003;BME280;65939;50.060;14.288;2023-04-03T10:12:29;98277.25;;;3.22;60.68
77003;BME280;65939;50.060;14.288;2023-04-03T10:14:32;98278.06;;;3.23;60.25
77003;BME280;65939;50.060;14.288;2023-04-03T10:16:48;98266.19;;;3.20;60.19
77003;BME280;65939;50.060;14.288;2023-04-03T10:19:03;98265.09;;;3.24;59.80
77003;BME280;65939;50.060;14.288;2023-04-03T10:21:26;98275.59;;;3.21;59.45
77003;BME280;65939;50.060;14.288;2023-04-03T10:30:42;98280.91;;;3.18;58.86
77003;BME280;65939;50.060;14.288;2023-04-03T10:33:04;98265.84;;;3.26;58.69
77003;BME280;65939;50.060;14.288;2023-04-03T10:50:00;98272.31;;;3.33;58.33
77003;BME280;65939;50.060;14.288;2023-04-03T10:52:47;98261.56;;;3.41;57.84
77003;BME280;65939;50.060;14.288;2023-04-03T10:54:59;98261.31;;;3.46;57.15
77003;BME280;65939;50.060;14.288;2023-04-03T10:57:05;98256.59;;;3.38;57.71
77003;BME280;65939;50.060;14.288;2023-04-03T10:59:38;98263.56;;;3.66;59.36
77003;BME280;65939;50.060;14.288;2023-04-03T11:01:45;98252.09;;;4.00;58.15
77003;BME280;65939;50.060;14.288;2023-04-03T11:03:53;98248.78;;;4.13;57.42
77003;BME280;65939;50.060;14.288;2023-04-03T11:05:59;98261.91;;;4.10;57.10
77003;BME280;65939;50.060;14.288;2023-04-03T11:08:08;98249.88;;;3.94;56.32
77003;BME280;65939;50.060;14.288;2023-04-03T11:14:59;98241.00;;;3.98;58.10
77003;BME280;65939;50.060;14.288;2023-04-03T11:19:29;98240.81;;;3.73;57.78
77003;BME280;65939;50.060;14.288;2023-04-03T11:21:45;98238.22;;;3.73;57.26
77003;BME280;65939;50.060;14.288;2023-04-03T11:23:48;98235.63;;;3.73;57.39
77003;BME280;65939;50.060;14.288;2023-04-03T11:25:54;98240.56;;;3.77;57.01
77003;BME280;65939;50.060;14.288;2023-04-03T11:28:06;98255.47;;;3.72;56.38
77003;BME280;65939;50.060;14.288;2023-04-03T11:34:57;98242.06;;;4.10;56.20